sensor_id;sensor_type;location;lat;lon;timestamp;P1;durP1;ratioP1;P2;durP2;ratioP2
35126;SDS011;21300;52.006;5.798;2023-01-24T00:00:38;18.33;;;11.43;;
35126;SDS011;21300;52.006;5.798;2023-01-24T00:03:04;18.17;;;11.75;;
35126;SDS011;21300;52.006;5.798;2023-01-24T00:05:32;20.50;;;12.82;;
35126;SDS011;21300;52.006;5.798;2023-01-24T00:07:58;18.15;;;11.23;;
35126;SDS011;21300;52.006;5.798;2023-01-24T00:10:24;21.15;;;13.23;;
35126;SDS011;21300;52.006;5.798;2023-01-24T00:12:50;19.17;;;12.10;;
35126;SDS011;21300;52.006;5.798;2023-01-24T00:15:15;21.13;;;12.68;;
35126;SDS011;21300;52.006;5.798;2023-01-24T00:17:41;22.95;;;13.73;;
35126;SDS011;21300;52.006;5.798;2023-01-24T00:20:07;20.75;;;12.48;;
35126;SDS011;21300;52.006;5.798;2023-01-24T00:22:33;22.20;;;12.93;;
35126;SDS011;21300;52.006;5.798;2023-01-24T00:24:59;19.13;;;11.13;;
35126;SDS011;21300;52.006;5.798;2023-01-24T00:27:24;19.90;;;13.02;;
35126;SDS011;21300;52.006;5.798;2023-01-24T00:29:50;21.10;;;12.68;;
35126;SDS011;21300;52.006;5.798;2023-01-24T00:32:15;21.65;;;12.48;;
35126;SDS011;21300;52.006;5.798;2023-01-24T00:34:41;19.42;;;12.25;;
35126;SDS011;21300;52.006;5.798;2023-01-24T00:37:06;20.02;;;11.88;;
35126;SDS011;21300;52.006;5.798;2023-01-24T00:39:32;18.48;;;11.43;;
35126;SDS011;21300;52.006;5.798;2023-01-24T00:41:58;19.70;;;11.20;;
35126;SDS011;21300;52.006;5.798;2023-01-24T00:44:23;17.60;;;10.75;;
35126;SDS011;21300;52.006;5.798;2023-01-24T00:46:52;18.30;;;10.90;;
35126;SDS011;21300;52.006;5.798;2023-01-24T00:49:18;18.45;;;11.20;;
35126;SDS011;21300;52.006;5.798;2023-01-24T00:51:44;18.77;;;11.68;;
35126;SDS011;21300;52.006;5.798;2023-01-24T00:54:09;17.85;;;10.82;;
35126;SDS011;21300;52.006;5.798;2023-01-24T00:56:35;18.02;;;11.07;;
35126;SDS011;21300;52.006;5.798;2023-01-24T00:59:00;17.42;;;10.70;;
35126;SDS011;21300;52.006;5.798;2023-01-24T01:01:26;18.60;;;11.65;;
35126;SDS011;21300;52.006;5.798;2023-01-24T01:03:55;15.57;;;10.05;;
35126;SDS011;21300;52.006;5.798;2023-01-24T01:06:21;18.13;;;11.95;;
35126;SDS011;21300;52.006;5.798;2023-01-24T01:08:47;18.73;;;11.32;;
35126;SDS011;21300;52.006;5.798;2023-01-24T01:11:13;17.23;;;10.77;;
35126;SDS011;21300;52.006;5.798;2023-01-24T01:13:38;18.77;;;11.95;;
35126;SDS011;21300;52.006;5.798;2023-01-24T01:16:06;20.20;;;12.02;;
35126;SDS011;21300;52.006;5.798;2023-01-24T01:18:33;20.98;;;11.75;;
35126;SDS011;21300;52.006;5.798;2023-01-24T01:20:59;18.88;;;10.90;;
35126;SDS011;21300;52.006;5.798;2023-01-24T01:23:25;18.83;;;11.00;;
35126;SDS011;21300;52.006;5.798;2023-01-24T01:25:51;19.35;;;11.00;;
35126;SDS011;21300;52.006;5.798;2023-01-24T01:28:16;18.27;;;10.90;;
35126;SDS011;21300;52.006;5.798;2023-01-24T01:30:42;21.90;;;12.38;;
35126;SDS011;21300;52.006;5.798;2023-01-24T01:33:08;11.65;;;7.47;;
35126;SDS011;21300;52.006;5.798;2023-01-24T01:35:33;21.52;;;13.23;;
35126;SDS011;21300;52.006;5.798;2023-01-24T01:37:59;22.45;;;12.43;;
35126;SDS011;21300;52.006;5.798;2023-01-24T01:40:25;23.50;;;14.18;;
35126;SDS011;21300;52.006;5.798;2023-01-24T01:42:52;21.60;;;13.15;;
35126;SDS011;21300;52.006;5.798;2023-01-24T01:45:42;26.77;;;14.07;;
35126;SDS011;21300;52.006;5.798;2023-01-24T01:48:42;23.20;;;13.52;;
35126;SDS011;21300;52.006;5.798;2023-01-24T01:51:11;23.42;;;12.18;;
35126;SDS011;21300;52.006;5.798;2023-01-24T01:53:49;23.27;;;14.85;;
35126;SDS011;21300;52.006;5.798;2023-01-24T01:56:33;25.08;;;13.88;;
35126;SDS011;21300;52.006;5.798;2023-01-24T01:59:04;22.58;;;13.85;;
35126;SDS011;21300;52.006;5.798;2023-01-24T02:01:41;26.38;;;14.38;;
35126;SDS011;21300;52.006;5.798;2023-01-24T02:04:11;25.88;;;13.32;;
35126;SDS011;21300;52.006;5.798;2023-01-24T02:06:43;19.40;;;11.52;;
35126;SDS011;21300;52.006;5.798;2023-01-24T02:09:36;24.38;;;13.90;;
35126;SDS011;21300;52.006;5.798;2023-01-24T02:12:07;22.42;;;12.70;;
35126;SDS011;21300;52.006;5.798;2023-01-24T02:17:25;25.70;;;14.38;;
35126;SDS011;21300;52.006;5.798;2023-01-24T02:20:13;25.70;;;15.63;;
35126;SDS011;21300;52.006;5.798;2023-01-24T02:22:58;23.83;;;14.43;;
35126;SDS011;21300;52.006;5.798;2023-01-24T02:25:37;23.58;;;13.48;;
35126;SDS011;21300;52.006;5.798;2023-01-24T02:28:10;19.98;;;11.10;;
35126;SDS011;21300;52.006;5.798;2023-01-24T02:30:36;22.35;;;14.00;;
35126;SDS011;21300;52.006;5.798;2023-01-24T02:33:13;23.67;;;14.25;;
35126;SDS011;21300;52.006;5.798;2023-01-24T02:35:43;22.63;;;12.63;;
35126;SDS011;21300;52.006;5.798;2023-01-24T02:38:16;25.40;;;14.15;;
35126;SDS011;21300;52.006;5.798;2023-01-24T02:40:45;22.75;;;13.68;;
35126;SDS011;21300;52.006;5.798;2023-01-24T02:43:14;22.23;;;14.63;;
35126;SDS011;21300;52.006;5.798;2023-01-24T02:45:42;24.88;;;14.05;;
35126;SDS011;21300;52.006;5.798;2023-01-24T02:48:08;25.08;;;13.80;;
35126;SDS011;21300;52.006;5.798;2023-01-24T02:50:34;24.15;;;14.18;;
35126;SDS011;21300;52.006;5.798;2023-01-24T02:53:18;24.38;;;14.52;;
35126;SDS011;21300;52.006;5.798;2023-01-24T02:55:56;24.85;;;14.18;;
35126;SDS011;21300;52.006;5.798;2023-01-24T02:58:40;26.58;;;14.77;;
35126;SDS011;21300;52.006;5.798;2023-01-24T03:03:51;27.35;;;14.30;;
35126;SDS011;21300;52.006;5.798;2023-01-24T03:06:17;27.55;;;15.48;;
35126;SDS011;21300;52.006;5.798;2023-01-24T03:08:43;25.27;;;15.45;;
35126;SDS011;21300;52.006;5.798;2023-01-24T03:11:09;24.30;;;14.73;;
35126;SDS011;21300;52.006;5.798;2023-01-24T03:13:36;27.98;;;15.15;;
35126;SDS011;21300;52.006;5.798;2023-01-24T03:16:21;29.00;;;17.13;;
35126;SDS011;21300;52.006;5.798;2023-01-24T03:19:05;29.75;;;15.57;;
35126;SDS011;21300;52.006;5.798;2023-01-24T03:21:50;32.42;;;18.98;;
35126;SDS011;21300;52.006;5.798;2023-01-24T03:24:34;30.27;;;16.83;;
35126;SDS011;21300;52.006;5.798;2023-01-24T03:27:18;28.95;;;17.45;;
35126;SDS011;21300;52.006;5.798;2023-01-24T03:30:03;30.13;;;18.30;;
35126;SDS011;21300;52.006;5.798;2023-01-24T03:32:48;33.20;;;17.52;;
35126;SDS011;21300;52.006;5.798;2023-01-24T03:35:33;32.70;;;17.38;;
35126;SDS011;21300;52.006;5.798;2023-01-24T03:37:58;31.48;;;18.50;;
35126;SDS011;21300;52.006;5.798;2023-01-24T03:40:42;30.90;;;16.77;;
35126;SDS011;21300;52.006;5.798;2023-01-24T03:43:08;29.73;;;16.33;;
35126;SDS011;21300;52.006;5.798;2023-01-24T03:45:35;29.63;;;14.82;;
35126;SDS011;21300;52.006;5.798;2023-01-24T03:48:06;36.35;;;19.73;;
35126;SDS011;21300;52.006;5.798;2023-01-24T03:50:41;27.13;;;16.52;;
35126;SDS011;21300;52.006;5.798;2023-01-24T03:53:29;36.10;;;20.48;;
35126;SDS011;21300;52.006;5.798;2023-01-24T03:55:57;34.22;;;19.98;;
35126;SDS011;21300;52.006;5.798;2023-01-24T03:58:24;34.25;;;20.13;;
35126;SDS011;21300;52.006;5.798;2023-01-24T04:00:51;32.13;;;19.17;;
35126;SDS011;21300;52.006;5.798;2023-01-24T04:03:17;35.42;;;18.88;;
35126;SDS011;21300;52.006;5.798;2023-01-24T04:05:43;33.25;;;19.40;;
35126;SDS011;21300;52.006;5.798;2023-01-24T04:08:11;32.50;;;19.35;;
35126;SDS011;21300;52.006;5.798;2023-01-24T04:10:36;33.20;;;20.35;;
35126;SDS011;21300;52.006;5.798;2023-01-24T04:13:02;30.65;;;18.70;;
35126;SDS011;21300;52.006;5.798;2023-01-24T04:15:29;32.13;;;19.42;;
35126;SDS011;21300;52.006;5.798;2023-01-24T04:17:57;33.35;;;19.80;;
35126;SDS011;21300;52.006;5.798;2023-01-24T04:20:25;34.08;;;19.10;;
35126;SDS011;21300;52.006;5.798;2023-01-24T04:22:52;33.53;;;20.65;;
35126;SDS011;21300;52.006;5.798;2023-01-24T04:25:18;32.63;;;20.23;;
35126;SDS011;21300;52.006;5.798;2023-01-24T04:27:44;33.80;;;19.30;;
35126;SDS011;21300;52.006;5.798;2023-01-24T04:30:11;35.85;;;20.88;;
35126;SDS011;21300;52.006;5.798;2023-01-24T04:32:38;32.53;;;19.20;;
35126;SDS011;21300;52.006;5.798;2023-01-24T04:35:04;31.98;;;18.80;;
35126;SDS011;21300;52.006;5.798;2023-01-24T04:37:31;42.45;;;22.70;;
35126;SDS011;21300;52.006;5.798;2023-01-24T04:39:57;35.45;;;20.10;;
35126;SDS011;21300;52.006;5.798;2023-01-24T04:42:23;32.72;;;19.70;;
35126;SDS011;21300;52.006;5.798;2023-01-24T04:44:49;34.03;;;19.85;;
35126;SDS011;21300;52.006;5.798;2023-01-24T04:47:14;34.58;;;19.40;;
35126;SDS011;21300;52.006;5.798;2023-01-24T04:49:43;34.83;;;19.27;;
35126;SDS011;21300;52.006;5.798;2023-01-24T04:52:12;30.88;;;17.83;;
35126;SDS011;21300;52.006;5.798;2023-01-24T04:54:38;35.50;;;19.27;;
35126;SDS011;21300;52.006;5.798;2023-01-24T04:57:04;33.45;;;19.23;;
35126;SDS011;21300;52.006;5.798;2023-01-24T04:59:31;32.30;;;18.58;;
35126;SDS011;21300;52.006;5.798;2023-01-24T05:01:56;32.50;;;19.40;;
35126;SDS011;21300;52.006;5.798;2023-01-24T05:04:22;40.03;;;23.85;;
35126;SDS011;21300;52.006;5.798;2023-01-24T05:06:47;37.65;;;20.35;;
35126;SDS011;21300;52.006;5.798;2023-01-24T05:09:13;38.88;;;22.25;;
35126;SDS011;21300;52.006;5.798;2023-01-24T05:11:38;37.88;;;20.73;;
35126;SDS011;21300;52.006;5.798;2023-01-24T05:14:04;36.92;;;20.77;;
35126;SDS011;21300;52.006;5.798;2023-01-24T05:16:30;36.70;;;20.27;;
35126;SDS011;21300;52.006;5.798;2023-01-24T05:18:55;34.25;;;19.75;;
35126;SDS011;21300;52.006;5.798;2023-01-24T05:21:21;39.38;;;21.40;;
35126;SDS011;21300;52.006;5.798;2023-01-24T05:23:50;35.10;;;20.50;;
35126;SDS011;21300;52.006;5.798;2023-01-24T05:26:17;36.10;;;20.02;;
35126;SDS011;21300;52.006;5.798;2023-01-24T05:28:43;37.05;;;21.50;;
35126;SDS011;21300;52.006;5.798;2023-01-24T05:31:09;37.60;;;21.42;;
35126;SDS011;21300;52.006;5.798;2023-01-24T05:33:35;35.65;;;20.33;;
35126;SDS011;21300;52.006;5.798;2023-01-24T05:36:02;36.97;;;21.08;;
35126;SDS011;21300;52.006;5.798;2023-01-24T05:38:30;37.80;;;20.42;;
35126;SDS011;21300;52.006;5.798;2023-01-24T05:40:59;36.30;;;20.25;;
35126;SDS011;21300;52.006;5.798;2023-01-24T05:43:27;35.25;;;20.95;;
35126;SDS011;21300;52.006;5.798;2023-01-24T05:45:59;34.85;;;20.30;;
35126;SDS011;21300;52.006;5.798;2023-01-24T05:48:26;37.67;;;22.30;;
35126;SDS011;21300;52.006;5.798;2023-01-24T05:51:05;35.00;;;19.35;;
35126;SDS011;21300;52.006;5.798;2023-01-24T05:53:35;36.67;;;17.88;;
35126;SDS011;21300;52.006;5.798;2023-01-24T05:56:06;36.90;;;19.08;;
35126;SDS011;21300;52.006;5.798;2023-01-24T05:58:39;28.95;;;15.05;;
35126;SDS011;21300;52.006;5.798;2023-01-24T06:01:07;34.83;;;18.45;;
35126;SDS011;21300;52.006;5.798;2023-01-24T06:03:33;33.17;;;19.02;;
35126;SDS011;21300;52.006;5.798;2023-01-24T06:05:58;35.13;;;20.02;;
35126;SDS011;21300;52.006;5.798;2023-01-24T06:08:24;34.85;;;19.25;;
35126;SDS011;21300;52.006;5.798;2023-01-24T06:10:49;34.47;;;19.08;;
35126;SDS011;21300;52.006;5.798;2023-01-24T06:13:15;33.42;;;18.58;;
35126;SDS011;21300;52.006;5.798;2023-01-24T06:15:41;36.10;;;19.15;;
35126;SDS011;21300;52.006;5.798;2023-01-24T06:18:06;36.38;;;20.92;;
35126;SDS011;21300;52.006;5.798;2023-01-24T06:20:36;34.83;;;19.17;;
35126;SDS011;21300;52.006;5.798;2023-01-24T06:23:03;33.53;;;17.77;;
35126;SDS011;21300;52.006;5.798;2023-01-24T06:25:30;38.05;;;20.05;;
35126;SDS011;21300;52.006;5.798;2023-01-24T06:27:56;35.95;;;20.25;;
35126;SDS011;21300;52.006;5.798;2023-01-24T06:30:22;35.67;;;19.30;;
35126;SDS011;21300;52.006;5.798;2023-01-24T06:38:39;35.15;;;20.27;;
35126;SDS011;21300;52.006;5.798;2023-01-24T06:41:09;36.53;;;21.48;;
35126;SDS011;21300;52.006;5.798;2023-01-24T06:43:39;38.97;;;20.40;;
35126;SDS011;21300;52.006;5.798;2023-01-24T06:46:05;33.03;;;19.17;;
35126;SDS011;21300;52.006;5.798;2023-01-24T06:48:32;35.83;;;21.35;;
35126;SDS011;21300;52.006;5.798;2023-01-24T06:50:58;42.28;;;22.75;;
35126;SDS011;21300;52.006;5.798;2023-01-24T06:53:24;40.53;;;22.40;;
35126;SDS011;21300;52.006;5.798;2023-01-24T06:55:50;35.35;;;20.75;;
35126;SDS011;21300;52.006;5.798;2023-01-24T06:58:15;38.00;;;21.33;;
35126;SDS011;21300;52.006;5.798;2023-01-24T07:00:41;36.22;;;20.63;;
35126;SDS011;21300;52.006;5.798;2023-01-24T07:03:07;37.53;;;20.15;;
35126;SDS011;21300;52.006;5.798;2023-01-24T07:05:34;34.83;;;19.60;;
35126;SDS011;21300;52.006;5.798;2023-01-24T07:08:02;40.97;;;22.42;;
35126;SDS011;21300;52.006;5.798;2023-01-24T07:10:27;38.17;;;23.13;;
35126;SDS011;21300;52.006;5.798;2023-01-24T07:12:53;37.55;;;20.90;;
35126;SDS011;21300;52.006;5.798;2023-01-24T07:15:19;39.70;;;22.42;;
35126;SDS011;21300;52.006;5.798;2023-01-24T07:17:45;39.20;;;22.63;;
35126;SDS011;21300;52.006;5.798;2023-01-24T07:20:11;37.05;;;21.70;;
35126;SDS011;21300;52.006;5.798;2023-01-24T07:22:38;38.17;;;21.00;;
35126;SDS011;21300;52.006;5.798;2023-01-24T07:25:05;40.15;;;20.98;;
35126;SDS011;21300;52.006;5.798;2023-01-24T07:27:43;39.20;;;23.10;;
35126;SDS011;21300;52.006;5.798;2023-01-24T07:30:10;35.53;;;20.73;;
35126;SDS011;21300;52.006;5.798;2023-01-24T07:32:36;36.05;;;21.40;;
35126;SDS011;21300;52.006;5.798;2023-01-24T07:35:03;40.03;;;21.73;;
35126;SDS011;21300;52.006;5.798;2023-01-24T07:37:29;42.47;;;23.40;;
35126;SDS011;21300;52.006;5.798;2023-01-24T07:39:55;41.40;;;23.77;;
35126;SDS011;21300;52.006;5.798;2023-01-24T07:42:20;37.85;;;22.48;;
35126;SDS011;21300;52.006;5.798;2023-01-24T07:44:46;36.13;;;21.10;;
35126;SDS011;21300;52.006;5.798;2023-01-24T07:47:12;38.28;;;21.70;;
35126;SDS011;21300;52.006;5.798;2023-01-24T07:49:37;39.53;;;22.55;;
35126;SDS011;21300;52.006;5.798;2023-01-24T07:52:03;41.13;;;23.63;;
35126;SDS011;21300;52.006;5.798;2023-01-24T07:54:29;37.92;;;21.45;;
35126;SDS011;21300;52.006;5.798;2023-01-24T07:56:54;38.25;;;24.33;;
35126;SDS011;21300;52.006;5.798;2023-01-24T07:59:20;42.47;;;24.35;;
35126;SDS011;21300;52.006;5.798;2023-01-24T08:01:45;39.47;;;23.15;;
35126;SDS011;21300;52.006;5.798;2023-01-24T08:04:11;35.38;;;21.13;;
35126;SDS011;21300;52.006;5.798;2023-01-24T08:06:38;44.15;;;24.85;;
35126;SDS011;21300;52.006;5.798;2023-01-24T08:09:04;38.78;;;23.73;;
35126;SDS011;21300;52.006;5.798;2023-01-24T08:11:29;39.97;;;23.23;;
35126;SDS011;21300;52.006;5.798;2023-01-24T08:13:55;40.90;;;23.20;;
35126;SDS011;21300;52.006;5.798;2023-01-24T08:16:21;38.75;;;22.15;;
35126;SDS011;21300;52.006;5.798;2023-01-24T08:18:50;38.60;;;21.42;;
35126;SDS011;21300;52.006;5.798;2023-01-24T08:21:16;36.85;;;22.45;;
35126;SDS011;21300;52.006;5.798;2023-01-24T08:23:42;37.63;;;21.52;;
35126;SDS011;21300;52.006;5.798;2023-01-24T08:26:07;37.92;;;21.88;;
35126;SDS011;21300;52.006;5.798;2023-01-24T08:28:33;40.95;;;22.20;;
35126;SDS011;21300;52.006;5.798;2023-01-24T08:30:59;37.97;;;22.48;;
35126;SDS011;21300;52.006;5.798;2023-01-24T08:33:24;39.47;;;23.65;;
35126;SDS011;21300;52.006;5.798;2023-01-24T08:35:50;37.05;;;23.08;;
35126;SDS011;21300;52.006;5.798;2023-01-24T08:38:16;38.03;;;22.42;;
35126;SDS011;21300;52.006;5.798;2023-01-24T08:40:42;37.13;;;22.58;;
35126;SDS011;21300;52.006;5.798;2023-01-24T08:43:08;36.75;;;22.00;;
35126;SDS011;21300;52.006;5.798;2023-01-24T08:45:34;37.78;;;22.80;;
35126;SDS011;21300;52.006;5.798;2023-01-24T08:47:59;38.03;;;22.98;;
35126;SDS011;21300;52.006;5.798;2023-01-24T08:50:25;37.70;;;20.45;;
35126;SDS011;21300;52.006;5.798;2023-01-24T08:52:53;39.22;;;23.98;;
35126;SDS011;21300;52.006;5.798;2023-01-24T08:55:20;39.75;;;21.13;;
35126;SDS011;21300;52.006;5.798;2023-01-24T08:57:46;35.92;;;22.33;;
35126;SDS011;21300;52.006;5.798;2023-01-24T09:00:12;35.85;;;20.85;;
35126;SDS011;21300;52.006;5.798;2023-01-24T09:02:38;38.72;;;23.13;;
35126;SDS011;21300;52.006;5.798;2023-01-24T09:05:04;38.35;;;21.67;;
35126;SDS011;21300;52.006;5.798;2023-01-24T09:07:30;36.45;;;21.20;;
35126;SDS011;21300;52.006;5.798;2023-01-24T09:09:56;37.47;;;22.73;;
35126;SDS011;21300;52.006;5.798;2023-01-24T09:12:22;36.13;;;21.70;;
35126;SDS011;21300;52.006;5.798;2023-01-24T09:14:47;35.17;;;20.73;;
35126;SDS011;21300;52.006;5.798;2023-01-24T09:17:13;33.38;;;18.60;;
35126;SDS011;21300;52.006;5.798;2023-01-24T09:19:38;36.80;;;19.85;;
35126;SDS011;21300;52.006;5.798;2023-01-24T09:22:04;33.53;;;20.17;;
35126;SDS011;21300;52.006;5.798;2023-01-24T09:24:30;37.88;;;21.65;;
35126;SDS011;21300;52.006;5.798;2023-01-24T09:26:55;33.30;;;20.75;;
35126;SDS011;21300;52.006;5.798;2023-01-24T09:29:21;34.88;;;19.10;;
35126;SDS011;21300;52.006;5.798;2023-01-24T09:31:47;36.05;;;21.40;;
35126;SDS011;21300;52.006;5.798;2023-01-24T09:34:13;38.95;;;23.40;;
35126;SDS011;21300;52.006;5.798;2023-01-24T09:36:39;36.88;;;20.92;;
35126;SDS011;21300;52.006;5.798;2023-01-24T09:39:05;36.30;;;21.45;;
35126;SDS011;21300;52.006;5.798;2023-01-24T09:52:55;32.97;;;19.20;;
35126;SDS011;21300;52.006;5.798;2023-01-24T09:55:24;34.47;;;18.80;;
35126;SDS011;21300;52.006;5.798;2023-01-24T09:57:58;30.58;;;15.60;;
35126;SDS011;21300;52.006;5.798;2023-01-24T10:02:58;32.83;;;18.63;;
35126;SDS011;21300;52.006;5.798;2023-01-24T10:05:45;33.40;;;19.73;;
35126;SDS011;21300;52.006;5.798;2023-01-24T10:13:47;33.03;;;20.30;;
35126;SDS011;21300;52.006;5.798;2023-01-24T10:24:24;32.78;;;21.38;;
35126;SDS011;21300;52.006;5.798;2023-01-24T10:26:56;33.47;;;21.65;;
35126;SDS011;21300;52.006;5.798;2023-01-24T10:29:25;36.25;;;20.60;;
35126;SDS011;21300;52.006;5.798;2023-01-24T10:37:04;32.75;;;18.52;;
35126;SDS011;21300;52.006;5.798;2023-01-24T10:39:33;37.97;;;21.67;;
35126;SDS011;21300;52.006;5.798;2023-01-24T10:41:59;33.45;;;22.08;;
35126;SDS011;21300;52.006;5.798;2023-01-24T10:44:29;34.08;;;20.77;;
35126;SDS011;21300;52.006;5.798;2023-01-24T10:50:14;35.08;;;20.92;;
35126;SDS011;21300;52.006;5.798;2023-01-24T10:52:42;37.00;;;22.05;;
35126;SDS011;21300;52.006;5.798;2023-01-24T10:58:03;33.72;;;19.52;;
35126;SDS011;21300;52.006;5.798;2023-01-24T11:00:58;30.88;;;16.95;;
35126;SDS011;21300;52.006;5.798;2023-01-24T11:03:29;33.63;;;17.88;;
35126;SDS011;21300;52.006;5.798;2023-01-24T11:05:57;34.22;;;17.50;;
35126;SDS011;21300;52.006;5.798;2023-01-24T11:10:59;33.88;;;19.65;;
35126;SDS011;21300;52.006;5.798;2023-01-24T11:13:35;34.85;;;20.10;;
35126;SDS011;21300;52.006;5.798;2023-01-24T11:18:47;32.50;;;19.58;;
35126;SDS011;21300;52.006;5.798;2023-01-24T11:21:14;35.20;;;20.15;;
35126;SDS011;21300;52.006;5.798;2023-01-24T11:23:41;33.08;;;19.50;;
35126;SDS011;21300;52.006;5.798;2023-01-24T11:26:24;32.67;;;19.13;;
35126;SDS011;21300;52.006;5.798;2023-01-24T11:29:02;32.17;;;18.88;;
35126;SDS011;21300;52.006;5.798;2023-01-24T11:31:39;31.10;;;18.65;;
35126;SDS011;21300;52.006;5.798;2023-01-24T11:36:39;34.78;;;20.73;;
35126;SDS011;21300;52.006;5.798;2023-01-24T11:42:31;30.48;;;19.02;;
35126;SDS011;21300;52.006;5.798;2023-01-24T11:51:05;31.08;;;18.77;;
35126;SDS011;21300;52.006;5.798;2023-01-24T11:53:49;29.02;;;18.00;;
35126;SDS011;21300;52.006;5.798;2023-01-24T11:56:40;28.60;;;18.60;;
35126;SDS011;21300;52.006;5.798;2023-01-24T12:16:21;24.50;;;13.40;;
35126;SDS011;21300;52.006;5.798;2023-01-24T12:19:22;29.38;;;18.25;;
35126;SDS011;21300;52.006;5.798;2023-01-24T12:22:19;28.15;;;17.60;;
35126;SDS011;21300;52.006;5.798;2023-01-24T12:25:11;28.42;;;18.20;;
35126;SDS011;21300;52.006;5.798;2023-01-24T12:27:41;27.10;;;17.38;;
35126;SDS011;21300;52.006;5.798;2023-01-24T12:33:46;26.92;;;16.98;;
35126;SDS011;21300;52.006;5.798;2023-01-24T12:35:54;28.55;;;17.55;;
35126;SDS011;21300;52.006;5.798;2023-01-24T12:38:29;25.20;;;16.05;;
35126;SDS011;21300;52.006;5.798;2023-01-24T12:41:11;26.08;;;17.38;;
35126;SDS011;21300;52.006;5.798;2023-01-24T12:49:29;26.42;;;17.35;;
35126;SDS011;21300;52.006;5.798;2023-01-24T12:52:00;22.05;;;14.77;;
35126;SDS011;21300;52.006;5.798;2023-01-24T12:54:44;25.13;;;15.65;;
35126;SDS011;21300;52.006;5.798;2023-01-24T12:57:26;27.50;;;17.20;;
35126;SDS011;21300;52.006;5.798;2023-01-24T13:00:10;27.08;;;16.50;;
35126;SDS011;21300;52.006;5.798;2023-01-24T13:02:44;24.17;;;15.25;;
35126;SDS011;21300;52.006;5.798;2023-01-24T13:08:21;26.40;;;17.83;;
35126;SDS011;21300;52.006;5.798;2023-01-24T13:11:06;23.25;;;15.43;;
35126;SDS011;21300;52.006;5.798;2023-01-24T13:13:45;25.08;;;16.30;;
35126;SDS011;21300;52.006;5.798;2023-01-24T13:19:17;28.60;;;16.40;;
35126;SDS011;21300;52.006;5.798;2023-01-24T13:22:27;23.33;;;15.20;;
35126;SDS011;21300;52.006;5.798;2023-01-24T13:27:58;25.60;;;16.30;;
35126;SDS011;21300;52.006;5.798;2023-01-24T13:30:48;23.58;;;15.32;;
35126;SDS011;21300;52.006;5.798;2023-01-24T13:33:49;22.95;;;13.75;;
35126;SDS011;21300;52.006;5.798;2023-01-24T13:36:21;24.60;;;16.40;;
35126;SDS011;21300;52.006;5.798;2023-01-24T13:38:49;22.83;;;16.38;;
35126;SDS011;21300;52.006;5.798;2023-01-24T13:41:17;24.15;;;15.30;;
35126;SDS011;21300;52.006;5.798;2023-01-24T13:44:04;25.50;;;16.50;;
35126;SDS011;21300;52.006;5.798;2023-01-24T13:46:59;19.90;;;14.07;;
35126;SDS011;21300;52.006;5.798;2023-01-24T13:51:54;20.73;;;13.70;;
35126;SDS011;21300;52.006;5.798;2023-01-24T13:54:41;21.58;;;14.85;;
35126;SDS011;21300;52.006;5.798;2023-01-24T13:59:43;20.05;;;14.43;;
35126;SDS011;21300;52.006;5.798;2023-01-24T14:02:29;21.02;;;14.25;;
35126;SDS011;21300;52.006;5.798;2023-01-24T14:05:01;22.40;;;15.50;;
35126;SDS011;21300;52.006;5.798;2023-01-24T14:07:28;22.75;;;14.50;;
35126;SDS011;21300;52.006;5.798;2023-01-24T14:10:05;19.95;;;13.30;;
35126;SDS011;21300;52.006;5.798;2023-01-24T14:12:35;19.38;;;13.43;;
35126;SDS011;21300;52.006;5.798;2023-01-24T14:15:04;22.08;;;13.35;;
35126;SDS011;21300;52.006;5.798;2023-01-24T14:20:16;25.77;;;14.73;;
35126;SDS011;21300;52.006;5.798;2023-01-24T14:22:53;21.45;;;13.45;;
35126;SDS011;21300;52.006;5.798;2023-01-24T14:25:38;20.45;;;14.27;;
35126;SDS011;21300;52.006;5.798;2023-01-24T14:28:24;17.13;;;10.90;;
35126;SDS011;21300;52.006;5.798;2023-01-24T14:30:57;21.98;;;14.77;;
35126;SDS011;21300;52.006;5.798;2023-01-24T14:33:29;23.08;;;15.35;;
35126;SDS011;21300;52.006;5.798;2023-01-24T14:36:44;19.67;;;13.13;;
35126;SDS011;21300;52.006;5.798;2023-01-24T14:41:56;22.63;;;15.07;;
35126;SDS011;21300;52.006;5.798;2023-01-24T14:44:27;21.27;;;14.40;;
35126;SDS011;21300;52.006;5.798;2023-01-24T14:47:38;21.08;;;15.00;;
35126;SDS011;21300;52.006;5.798;2023-01-24T14:49:50;24.98;;;15.32;;
35126;SDS011;21300;52.006;5.798;2023-01-24T14:52:21;24.15;;;15.02;;
35126;SDS011;21300;52.006;5.798;2023-01-24T14:54:52;23.20;;;15.40;;
35126;SDS011;21300;52.006;5.798;2023-01-24T14:57:23;23.10;;;16.10;;
35126;SDS011;21300;52.006;5.798;2023-01-24T15:02:56;21.70;;;14.82;;
35126;SDS011;21300;52.006;5.798;2023-01-24T15:05:28;21.67;;;15.05;;
35126;SDS011;21300;52.006;5.798;2023-01-24T15:08:02;23.45;;;15.15;;
35126;SDS011;21300;52.006;5.798;2023-01-24T15:10:38;23.33;;;15.93;;
35126;SDS011;21300;52.006;5.798;2023-01-24T15:13:09;22.63;;;15.45;;
35126;SDS011;21300;52.006;5.798;2023-01-24T15:15:43;21.92;;;14.70;;
35126;SDS011;21300;52.006;5.798;2023-01-24T15:18:19;20.25;;;14.38;;
35126;SDS011;21300;52.006;5.798;2023-01-24T15:20:59;19.15;;;14.25;;
35126;SDS011;21300;52.006;5.798;2023-01-24T15:23:26;19.85;;;13.38;;
35126;SDS011;21300;52.006;5.798;2023-01-24T15:25:55;20.00;;;13.52;;
35126;SDS011;21300;52.006;5.798;2023-01-24T15:28:30;21.63;;;13.98;;
35126;SDS011;21300;52.006;5.798;2023-01-24T15:30:57;19.65;;;13.32;;
35126;SDS011;21300;52.006;5.798;2023-01-24T15:33:40;20.27;;;13.30;;
35126;SDS011;21300;52.006;5.798;2023-01-24T15:39:01;20.85;;;14.18;;
35126;SDS011;21300;52.006;5.798;2023-01-24T15:41:34;20.15;;;14.00;;
35126;SDS011;21300;52.006;5.798;2023-01-24T15:44:20;18.02;;;12.93;;
35126;SDS011;21300;52.006;5.798;2023-01-24T15:46:54;18.52;;;12.27;;
35126;SDS011;21300;52.006;5.798;2023-01-24T15:49:40;20.50;;;14.40;;
35126;SDS011;21300;52.006;5.798;2023-01-24T15:52:22;21.15;;;13.77;;
35126;SDS011;21300;52.006;5.798;2023-01-24T15:54:55;20.83;;;14.38;;
35126;SDS011;21300;52.006;5.798;2023-01-24T15:57:30;19.85;;;13.98;;
35126;SDS011;21300;52.006;5.798;2023-01-24T15:59:59;21.93;;;14.17;;
35126;SDS011;21300;52.006;5.798;2023-01-24T16:02:35;19.08;;;13.57;;
35126;SDS011;21300;52.006;5.798;2023-01-24T16:05:01;21.38;;;13.52;;
35126;SDS011;21300;52.006;5.798;2023-01-24T16:07:40;18.35;;;13.20;;
35126;SDS011;21300;52.006;5.798;2023-01-24T16:10:05;16.77;;;11.77;;
35126;SDS011;21300;52.006;5.798;2023-01-24T16:12:31;19.83;;;12.80;;
35126;SDS011;21300;52.006;5.798;2023-01-24T16:14:58;20.25;;;13.27;;
35126;SDS011;21300;52.006;5.798;2023-01-24T16:17:25;18.20;;;13.00;;
35126;SDS011;21300;52.006;5.798;2023-01-24T16:19:50;19.45;;;12.60;;
35126;SDS011;21300;52.006;5.798;2023-01-24T16:22:16;20.60;;;13.43;;
35126;SDS011;21300;52.006;5.798;2023-01-24T16:24:42;19.70;;;13.27;;
35126;SDS011;21300;52.006;5.798;2023-01-24T16:27:09;16.92;;;12.18;;
35126;SDS011;21300;52.006;5.798;2023-01-24T16:29:37;19.45;;;12.70;;
35126;SDS011;21300;52.006;5.798;2023-01-24T16:32:04;18.23;;;12.38;;
35126;SDS011;21300;52.006;5.798;2023-01-24T16:34:40;18.55;;;12.07;;
35126;SDS011;21300;52.006;5.798;2023-01-24T16:37:07;18.30;;;12.48;;
35126;SDS011;21300;52.006;5.798;2023-01-24T16:39:33;19.85;;;13.07;;